sensor_id;sensor_type;location;lat;lon;timestamp;pressure;altitude;pressure_sealevel;temperature;humidity
61408;BME280;47274;43.054;25.146;2023-10-31T00:00:23;95653.75;;;15.13;60.18
61408;BME280;47274;43.054;25.146;2023-10-31T00:02:50;95651.63;;;14.94;60.23
61408;BME280;47274;43.054;25.146;2023-10-31T00:05:25;95647.28;;;14.86;60.79
61408;BME280;47274;43.054;25.146;2023-10-31T00:07:51;95652.66;;;14.85;61.06
61408;BME280;47274;43.054;25.146;2023-10-31T00:10:18;95651.72;;;14.78;61.57
61408;BME280;47274;43.054;25.146;2023-10-31T00:12:45;95665.13;;;14.73;61.52
61408;BME280;47274;43.054;25.146;2023-10-31T00:15:17;95658.00;;;14.75;61.57
61408;BME280;47274;43.054;25.146;2023-10-31T00:17:48;95649.97;;;14.70;62.13
61408;BME280;47274;43.054;25.146;2023-10-31T00:20:18;95585.28;;;14.16;62.64
61408;BME280;47274;43.054;25.146;2023-10-31T00:22:46;95633.59;;;14.46;62.57
61408;BME280;47274;43.054;25.146;2023-10-31T00:25:19;95579.81;;;14.11;61.73
61408;BME280;47274;43.054;25.146;2023-10-31T00:27:47;95535.22;;;13.86;61.58
61408;BME280;47274;43.054;25.146;2023-10-31T00:30:16;95575.78;;;14.08;61.63
61408;BME280;47274;43.054;25.146;2023-10-31T00:32:49;95639.34;;;14.65;61.39
61408;BME280;47274;43.054;25.146;2023-10-31T00:35:18;95625.09;;;14.77;60.34
61408;BME280;47274;43.054;25.146;2023-10-31T00:37:45;95624.56;;;14.82;59.88
61408;BME280;47274;43.054;25.146;2023-10-31T00:40:11;95632.22;;;14.67;60.07
61408;BME280;47274;43.054;25.146;2023-10-31T00:42:49;95629.22;;;14.86;59.17
61408;BME280;47274;43.054;25.146;2023-10-31T00:45:16;95600.84;;;14.78;58.40
61408;BME280;47274;43.054;25.146;2023-10-31T00:47:44;95620.38;;;14.81;58.52
61408;BME280;47274;43.054;25.146;2023-10-31T00:50:11;95626.81;;;14.85;58.46
61408;BME280;47274;43.054;25.146;2023-10-31T00:52:40;95575.84;;;14.39;58.96
61408;BME280;47274;43.054;25.146;2023-10-31T00:55:07;95576.47;;;14.41;59.38
61408;BME280;47274;43.054;25.146;2023-10-31T00:57:38;95567.31;;;14.31;59.82
61408;BME280;47274;43.054;25.146;2023-10-31T01:00:13;95587.28;;;14.53;60.05
61408;BME280;47274;43.054;25.146;2023-10-31T01:02:39;95565.16;;;14.42;60.29
61408;BME280;47274;43.054;25.146;2023-10-31T01:05:05;95586.41;;;14.61;60.26
61408;BME280;47274;43.054;25.146;2023-10-31T01:07:33;95560.78;;;14.51;59.68
61408;BME280;47274;43.054;25.146;2023-10-31T01:10:04;95571.53;;;14.63;60.34
61408;BME280;47274;43.054;25.146;2023-10-31T01:12:32;95533.84;;;14.45;60.31
61408;BME280;47274;43.054;25.146;2023-10-31T01:14:58;95546.81;;;14.68;59.68
61408;BME280;47274;43.054;25.146;2023-10-31T01:17:26;95599.03;;;15.10;59.61
61408;BME280;47274;43.054;25.146;2023-10-31T01:19:52;95585.94;;;15.11;60.29
61408;BME280;47274;43.054;25.146;2023-10-31T01:22:21;95581.50;;;15.20;59.62
61408;BME280;47274;43.054;25.146;2023-10-31T01:24:47;95517.38;;;14.78;58.95
61408;BME280;47274;43.054;25.146;2023-10-31T01:27:18;95587.69;;;15.11;60.23
61408;BME280;47274;43.054;25.146;2023-10-31T01:29:45;95603.16;;;15.19;60.73
61408;BME280;47274;43.054;25.146;2023-10-31T01:32:12;95552.91;;;14.99;61.73
61408;BME280;47274;43.054;25.146;2023-10-31T01:34:39;95564.75;;;14.93;61.62
61408;BME280;47274;43.054;25.146;2023-10-31T01:37:08;95557.00;;;14.70;62.49
61408;BME280;47274;43.054;25.146;2023-10-31T01:39:36;95551.06;;;14.61;63.63
61408;BME280;47274;43.054;25.146;2023-10-31T01:42:08;95544.78;;;14.56;63.33
61408;BME280;47274;43.054;25.146;2023-10-31T01:44:43;95574.50;;;14.83;62.91
61408;BME280;47274;43.054;25.146;2023-10-31T01:47:09;95553.63;;;14.61;64.15
61408;BME280;47274;43.054;25.146;2023-10-31T01:49:37;95534.75;;;14.61;62.65
61408;BME280;47274;43.054;25.146;2023-10-31T01:52:09;95522.72;;;14.45;63.01
61408;BME280;47274;43.054;25.146;2023-10-31T01:54:47;95544.03;;;14.39;64.13
61408;BME280;47274;43.054;25.146;2023-10-31T01:57:21;95529.72;;;14.28;65.02
61408;BME280;47274;43.054;25.146;2023-10-31T01:59:51;95552.59;;;14.39;65.10
61408;BME280;47274;43.054;25.146;2023-10-31T02:02:23;95537.13;;;14.31;64.45
61408;BME280;47274;43.054;25.146;2023-10-31T02:04:54;95581.91;;;14.55;64.53
61408;BME280;47274;43.054;25.146;2023-10-31T02:07:25;95528.81;;;14.21;64.59
61408;BME280;47274;43.054;25.146;2023-10-31T02:09:54;95529.19;;;14.02;65.51
61408;BME280;47274;43.054;25.146;2023-10-31T02:12:36;95481.78;;;13.71;65.23
61408;BME280;47274;43.054;25.146;2023-10-31T02:15:08;95579.00;;;14.10;64.96
61408;BME280;47274;43.054;25.146;2023-10-31T02:17:36;95564.56;;;13.93;65.55
61408;BME280;47274;43.054;25.146;2023-10-31T02:20:04;95556.53;;;13.80;66.09
61408;BME280;47274;43.054;25.146;2023-10-31T02:22:35;95582.94;;;13.90;66.96
61408;BME280;47274;43.054;25.146;2023-10-31T02:25:02;95590.34;;;13.93;66.63
61408;BME280;47274;43.054;25.146;2023-10-31T02:27:31;95499.75;;;13.40;66.53
61408;BME280;47274;43.054;25.146;2023-10-31T02:29:57;95584.69;;;13.97;66.93
61408;BME280;47274;43.054;25.146;2023-10-31T02:32:25;95591.47;;;13.98;66.85
61408;BME280;47274;43.054;25.146;2023-10-31T02:34:54;95542.22;;;13.69;68.32
61408;BME280;47274;43.054;25.146;2023-10-31T02:37:25;95551.47;;;13.94;67.34
61408;BME280;47274;43.054;25.146;2023-10-31T02:39:51;95517.47;;;13.91;66.58
61408;BME280;47274;43.054;25.146;2023-10-31T02:42:17;95576.03;;;14.30;67.23
61408;BME280;47274;43.054;25.146;2023-10-31T02:44:43;95504.44;;;13.84;66.61
61408;BME280;47274;43.054;25.146;2023-10-31T02:47:10;95496.78;;;13.60;66.79
61408;BME280;47274;43.054;25.146;2023-10-31T02:49:39;95528.66;;;13.67;67.44
61408;BME280;47274;43.054;25.146;2023-10-31T02:52:06;95498.44;;;13.44;67.58
61408;BME280;47274;43.054;25.146;2023-10-31T02:54:34;95541.41;;;13.68;68.02
61408;BME280;47274;43.054;25.146;2023-10-31T02:57:05;95503.25;;;13.39;68.13
61408;BME280;47274;43.054;25.146;2023-10-31T02:59:33;95541.25;;;13.54;68.55
61408;BME280;47274;43.054;25.146;2023-10-31T03:02:03;95557.41;;;13.47;69.62
61408;BME280;47274;43.054;25.146;2023-10-31T03:04:30;95522.59;;;13.35;69.32
61408;BME280;47274;43.054;25.146;2023-10-31T03:06:57;95552.41;;;13.54;69.26
61408;BME280;47274;43.054;25.146;2023-10-31T03:09:23;95580.22;;;13.67;69.26
61408;BME280;47274;43.054;25.146;2023-10-31T03:11:53;95541.94;;;13.39;69.61
61408;BME280;47274;43.054;25.146;2023-10-31T03:14:21;95564.81;;;13.42;70.09
61408;BME280;47274;43.054;25.146;2023-10-31T03:16:56;95581.22;;;13.49;70.33
61408;BME280;47274;43.054;25.146;2023-10-31T03:19:24;95569.50;;;13.47;71.15
61408;BME280;47274;43.054;25.146;2023-10-31T03:21:52;95570.75;;;13.43;71.14
61408;BME280;47274;43.054;25.146;2023-10-31T03:24:19;95560.16;;;13.38;71.76
61408;BME280;47274;43.054;25.146;2023-10-31T03:26:45;95492.31;;;12.88;71.69
61408;BME280;47274;43.054;25.146;2023-10-31T03:29:17;95569.50;;;13.31;72.45
61408;BME280;47274;43.054;25.146;2023-10-31T03:31:46;95552.41;;;13.38;71.75
61408;BME280;47274;43.054;25.146;2023-10-31T03:34:13;95562.88;;;13.44;71.43
61408;BME280;47274;43.054;25.146;2023-10-31T03:36:45;95578.47;;;13.59;71.84
61408;BME280;47274;43.054;25.146;2023-10-31T03:39:20;95506.81;;;13.22;72.12
61408;BME280;47274;43.054;25.146;2023-10-31T03:41:47;95556.91;;;13.52;72.67
61408;BME280;47274;43.054;25.146;2023-10-31T03:44:12;95573.66;;;13.56;72.21
61408;BME280;47274;43.054;25.146;2023-10-31T03:46:45;95507.50;;;13.24;71.87
61408;BME280;47274;43.054;25.146;2023-10-31T03:49:11;95515.97;;;13.49;71.44
61408;BME280;47274;43.054;25.146;2023-10-31T03:51:45;95525.75;;;13.78;70.94
61408;BME280;47274;43.054;25.146;2023-10-31T03:54:11;95538.78;;;13.85;70.13
61408;BME280;47274;43.054;25.146;2023-10-31T03:56:41;95463.94;;;13.45;70.21
61408;BME280;47274;43.054;25.146;2023-10-31T03:59:10;95572.25;;;14.01;70.04
61408;BME280;47274;43.054;25.146;2023-10-31T04:01:37;95477.84;;;13.20;69.53
61408;BME280;47274;43.054;25.146;2023-10-31T04:04:03;95524.88;;;13.30;68.76
61408;BME280;47274;43.054;25.146;2023-10-31T04:06:30;95568.34;;;13.58;67.74
61408;BME280;47274;43.054;25.146;2023-10-31T04:08:56;95534.19;;;13.47;67.12
61408;BME280;47274;43.054;25.146;2023-10-31T04:11:26;95562.03;;;13.60;66.97
61408;BME280;47274;43.054;25.146;2023-10-31T04:13:53;95554.50;;;13.50;67.86
61408;BME280;47274;43.054;25.146;2023-10-31T04:16:20;95539.84;;;13.35;68.07
61408;BME280;47274;43.054;25.146;2023-10-31T04:18:47;95568.34;;;13.49;68.61
61408;BME280;47274;43.054;25.146;2023-10-31T04:21:13;95570.09;;;13.57;68.64
61408;BME280;47274;43.054;25.146;2023-10-31T04:23:39;95506.16;;;12.95;68.86
61408;BME280;47274;43.054;25.146;2023-10-31T04:26:11;95534.81;;;13.09;69.58
61408;BME280;47274;43.054;25.146;2023-10-31T04:28:42;95534.81;;;13.09;69.46
61408;BME280;47274;43.054;25.146;2023-10-31T04:31:10;95518.44;;;13.10;69.03
61408;BME280;47274;43.054;25.146;2023-10-31T04:33:38;95540.31;;;13.22;68.84
61408;BME280;47274;43.054;25.146;2023-10-31T04:36:10;95526.16;;;13.10;68.16
61408;BME280;47274;43.054;25.146;2023-10-31T04:38:38;95513.75;;;13.05;68.24
61408;BME280;47274;43.054;25.146;2023-10-31T04:41:11;95525.66;;;13.14;67.88
61408;BME280;47274;43.054;25.146;2023-10-31T04:43:39;95514.72;;;13.04;67.81
61408;BME280;47274;43.054;25.146;2023-10-31T04:46:17;95495.88;;;12.71;68.82
61408;BME280;47274;43.054;25.146;2023-10-31T04:48:51;95517.91;;;12.73;69.71
61408;BME280;47274;43.054;25.146;2023-10-31T04:51:17;95479.91;;;12.35;70.70
61408;BME280;47274;43.054;25.146;2023-10-31T04:53:51;95484.56;;;12.39;70.70
61408;BME280;47274;43.054;25.146;2023-10-31T04:56:17;95476.53;;;12.50;70.37
61408;BME280;47274;43.054;25.146;2023-10-31T04:58:50;95491.19;;;12.74;69.33
61408;BME280;47274;43.054;25.146;2023-10-31T05:01:16;95503.13;;;13.00;68.39
61408;BME280;47274;43.054;25.146;2023-10-31T05:03:44;95564.47;;;13.54;67.77
61408;BME280;47274;43.054;25.146;2023-10-31T05:06:11;95448.84;;;13.01;66.77
61408;BME280;47274;43.054;25.146;2023-10-31T05:08:42;95502.31;;;13.40;66.71
61408;BME280;47274;43.054;25.146;2023-10-31T05:11:09;95506.94;;;13.53;66.38
61408;BME280;47274;43.054;25.146;2023-10-31T05:13:35;95497.44;;;13.54;66.15
61408;BME280;47274;43.054;25.146;2023-10-31T05:16:04;95522.22;;;13.71;65.96
61408;BME280;47274;43.054;25.146;2023-10-31T05:18:38;95454.28;;;13.39;65.20
61408;BME280;47274;43.054;25.146;2023-10-31T05:21:06;95466.19;;;13.48;65.03
61408;BME280;47274;43.054;25.146;2023-10-31T05:23:45;95490.31;;;13.64;65.54
61408;BME280;47274;43.054;25.146;2023-10-31T05:26:12;95461.34;;;13.54;66.46
61408;BME280;47274;43.054;25.146;2023-10-31T05:28:44;95543.63;;;14.27;65.95
61408;BME280;47274;43.054;25.146;2023-10-31T05:31:15;95467.97;;;13.87;65.99
61408;BME280;47274;43.054;25.146;2023-10-31T05:33:42;95487.69;;;14.19;65.87
61408;BME280;47274;43.054;25.146;2023-10-31T05:36:18;95499.94;;;14.49;65.36
61408;BME280;47274;43.054;25.146;2023-10-31T05:38:49;95489.16;;;14.53;64.52
61408;BME280;47274;43.054;25.146;2023-10-31T05:41:27;95501.00;;;14.85;64.39
61408;BME280;47274;43.054;25.146;2023-10-31T05:44:00;95543.13;;;15.32;63.33
61408;BME280;47274;43.054;25.146;2023-10-31T05:46:37;95517.78;;;15.27;62.21
61408;BME280;47274;43.054;25.146;2023-10-31T05:49:10;95471.78;;;15.08;62.39
61408;BME280;47274;43.054;25.146;2023-10-31T05:51:40;95525.69;;;15.63;62.22
61408;BME280;47274;43.054;25.146;2023-10-31T05:54:12;95534.38;;;15.85;61.76
61408;BME280;47274;43.054;25.146;2023-10-31T05:56:52;95537.66;;;16.09;61.30
61408;BME280;47274;43.054;25.146;2023-10-31T05:59:21;95490.94;;;15.81;58.69
61408;BME280;47274;43.054;25.146;2023-10-31T06:01:47;95535.25;;;16.22;58.26
61408;BME280;47274;43.054;25.146;2023-10-31T06:04:16;95559.03;;;16.62;58.09
61408;BME280;47274;43.054;25.146;2023-10-31T06:06:44;95510.91;;;16.53;57.64
61408;BME280;47274;43.054;25.146;2023-10-31T06:09:13;95512.25;;;16.70;56.23
61408;BME280;47274;43.054;25.146;2023-10-31T06:11:42;95510.13;;;16.95;56.23
61408;BME280;47274;43.054;25.146;2023-10-31T06:14:10;95499.50;;;17.12;54.78
61408;BME280;47274;43.054;25.146;2023-10-31T06:16:57;95514.84;;;17.07;55.54
61408;BME280;47274;43.054;25.146;2023-10-31T06:19:34;95569.50;;;17.83;53.26
61408;BME280;47274;43.054;25.146;2023-10-31T06:22:00;95491.38;;;17.77;51.53
61408;BME280;47274;43.054;25.146;2023-10-31T06:24:31;95530.34;;;18.12;51.18
61408;BME280;47274;43.054;25.146;2023-10-31T06:27:06;95538.81;;;18.41;51.68
61408;BME280;47274;43.054;25.146;2023-10-31T06:29:32;95566.97;;;18.79;50.04
61408;BME280;47274;43.054;25.146;2023-10-31T06:32:02;95552.78;;;18.81;49.27
61408;BME280;47274;43.054;25.146;2023-10-31T06:34:29;95515.13;;;18.70;48.17
61408;BME280;47274;43.054;25.146;2023-10-31T06:36:56;95540.22;;;18.98;50.34
61408;BME280;47274;43.054;25.146;2023-10-31T06:39:28;95507.16;;;18.72;47.65
61408;BME280;47274;43.054;25.146;2023-10-31T06:41:56;95573.47;;;19.62;48.82
61408;BME280;47274;43.054;25.146;2023-10-31T06:44:26;95513.00;;;19.60;46.92
61408;BME280;47274;43.054;25.146;2023-10-31T06:46:53;95515.94;;;19.97;46.87
61408;BME280;47274;43.054;25.146;2023-10-31T06:49:19;95533.81;;;19.74;45.22
61408;BME280;47274;43.054;25.146;2023-10-31T06:51:51;95518.19;;;19.54;46.40
61408;BME280;47274;43.054;25.146;2023-10-31T06:54:18;95559.44;;;19.37;47.25
61408;BME280;47274;43.054;25.146;2023-10-31T06:56:45;95512.59;;;18.97;48.13
61408;BME280;47274;43.054;25.146;2023-10-31T06:59:15;95538.25;;;19.67;46.97
61408;BME280;47274;43.054;25.146;2023-10-31T07:01:50;95540.38;;;19.96;45.34
61408;BME280;47274;43.054;25.146;2023-10-31T07:04:17;95589.84;;;20.09;45.54
61408;BME280;47274;43.054;25.146;2023-10-31T07:06:49;95557.44;;;19.65;45.80
61408;BME280;47274;43.054;25.146;2023-10-31T07:09:18;95518.59;;;19.51;46.18
61408;BME280;47274;43.054;25.146;2023-10-31T07:11:44;95522.72;;;20.11;46.82
61408;BME280;47274;43.054;25.146;2023-10-31T07:14:18;95505.72;;;20.47;43.64
61408;BME280;47274;43.054;25.146;2023-10-31T07:16:47;95549.94;;;21.05;43.92
61408;BME280;47274;43.054;25.146;2023-10-31T07:19:16;95572.19;;;21.15;43.01
61408;BME280;47274;43.054;25.146;2023-10-31T07:21:56;95500.22;;;21.25;43.23
61408;BME280;47274;43.054;25.146;2023-10-31T07:24:26;95550.31;;;21.09;43.78
61408;BME280;47274;43.054;25.146;2023-10-31T07:26:57;95561.69;;;21.53;43.60
61408;BME280;47274;43.054;25.146;2023-10-31T07:29:25;95533.19;;;21.51;42.77
61408;BME280;47274;43.054;25.146;2023-10-31T07:31:56;95474.19;;;20.62;43.70
61408;BME280;47274;43.054;25.146;2023-10-31T07:34:23;95480.56;;;20.28;45.15
61408;BME280;47274;43.054;25.146;2023-10-31T07:36:56;95502.66;;;20.64;44.87
61408;BME280;47274;43.054;25.146;2023-10-31T07:39:22;95492.19;;;19.34;46.02
61408;BME280;47274;43.054;25.146;2023-10-31T07:41:50;95478.38;;;19.47;46.37
61408;BME280;47274;43.054;25.146;2023-10-31T07:44:17;95488.94;;;19.58;46.42
61408;BME280;47274;43.054;25.146;2023-10-31T07:46:43;95540.84;;;20.51;46.21
61408;BME280;47274;43.054;25.146;2023-10-31T07:49:13;95558.38;;;20.76;45.85
61408;BME280;47274;43.054;25.146;2023-10-31T07:51:41;95550.41;;;21.34;44.91
61408;BME280;47274;43.054;25.146;2023-10-31T07:54:18;95471.25;;;21.34;43.91
61408;BME280;47274;43.054;25.146;2023-10-31T07:56:47;95504.28;;;20.58;45.83
61408;BME280;47274;43.054;25.146;2023-10-31T07:59:13;95510.78;;;21.81;43.04
61408;BME280;47274;43.054;25.146;2023-10-31T08:01:40;95521.25;;;21.81;43.11
61408;BME280;47274;43.054;25.146;2023-10-31T08:04:11;95495.09;;;21.12;44.15
61408;BME280;47274;43.054;25.146;2023-10-31T08:06:52;95471.00;;;21.17;43.61
61408;BME280;47274;43.054;25.146;2023-10-31T08:09:21;95461.41;;;21.61;42.27
61408;BME280;47274;43.054;25.146;2023-10-31T08:11:49;95445.44;;;21.00;42.73
61408;BME280;47274;43.054;25.146;2023-10-31T08:14:28;95441.06;;;21.44;41.55
61408;BME280;47274;43.054;25.146;2023-10-31T08:16:58;95455.69;;;22.37;40.30
61408;BME280;47274;43.054;25.146;2023-10-31T08:19:25;95434.66;;;22.14;40.15
61408;BME280;47274;43.054;25.146;2023-10-31T08:21:52;95462.84;;;22.30;40.72
61408;BME280;47274;43.054;25.146;2023-10-31T08:24:19;95434.09;;;22.42;40.10
61408;BME280;47274;43.054;25.146;2023-10-31T08:26:45;95479.25;;;23.45;39.83
61408;BME280;47274;43.054;25.146;2023-10-31T08:29:16;95415.81;;;23.66;37.95
61408;BME280;47274;43.054;25.146;2023-10-31T08:31:48;95452.84;;;23.23;38.98
61408;BME280;47274;43.054;25.146;2023-10-31T08:34:23;95400.31;;;22.70;39.37
61408;BME280;47274;43.054;25.146;2023-10-31T08:36:50;95434.38;;;23.41;37.98
61408;BME280;47274;43.054;25.146;2023-10-31T08:39:20;95398.63;;;23.47;39.16
61408;BME280;47274;43.054;25.146;2023-10-31T08:41:56;95400.38;;;23.06;38.24
61408;BME280;47274;43.054;25.146;2023-10-31T08:44:22;95445.44;;;23.20;38.77
61408;BME280;47274;43.054;25.146;2023-10-31T08:46:52;95418.25;;;22.25;40.45
61408;BME280;47274;43.054;25.146;2023-10-31T08:49:19;95448.53;;;22.33;39.63
61408;BME280;47274;43.054;25.146;2023-10-31T08:51:45;95425.09;;;22.80;39.45
61408;BME280;47274;43.054;25.146;2023-10-31T08:54:16;95426.88;;;23.09;39.12
61408;BME280;47274;43.054;25.146;2023-10-31T08:56:44;95442.00;;;23.66;37.92
61408;BME280;47274;43.054;25.146;2023-10-31T08:59:17;95383.31;;;23.15;38.70
61408;BME280;47274;43.054;25.146;2023-10-31T09:01:44;95391.94;;;23.15;39.14
61408;BME280;47274;43.054;25.146;2023-10-31T09:04:15;95376.09;;;23.34;38.11
61408;BME280;47274;43.054;25.146;2023-10-31T09:06:42;95390.78;;;24.56;36.34
61408;BME280;47274;43.054;25.146;2023-10-31T09:09:16;95367.25;;;25.72;34.80
61408;BME280;47274;43.054;25.146;2023-10-31T09:11:44;95366.00;;;26.51;32.79
61408;BME280;47274;43.054;25.146;2023-10-31T09:14:10;95366.34;;;26.97;32.85
61408;BME280;47274;43.054;25.146;2023-10-31T09:16:39;95338.19;;;26.98;31.50
61408;BME280;47274;43.054;25.146;2023-10-31T09:19:05;95349.41;;;27.73;31.08
61408;BME280;47274;43.054;25.146;2023-10-31T09:21:31;95392.19;;;27.80;31.39
61408;BME280;47274;43.054;25.146;2023-10-31T09:23:59;95336.56;;;27.29;31.29
61408;BME280;47274;43.054;25.146;2023-10-31T09:26:27;95373.06;;;26.78;33.01
61408;BME280;47274;43.054;25.146;2023-10-31T09:28:57;95378.94;;;27.75;30.90
61408;BME280;47274;43.054;25.146;2023-10-31T09:31:26;95344.19;;;26.29;31.78
61408;BME280;47274;43.054;25.146;2023-10-31T09:33:54;95318.75;;;25.58;33.14
61408;BME280;47274;43.054;25.146;2023-10-31T09:36:20;95323.72;;;26.63;32.85
61408;BME280;47274;43.054;25.146;2023-10-31T09:38:47;95311.00;;;26.87;31.81
61408;BME280;47274;43.054;25.146;2023-10-31T09:41:13;95323.91;;;27.99;31.47
61408;BME280;47274;43.054;25.146;2023-10-31T09:43:41;95317.13;;;29.00;29.19
61408;BME280;47274;43.054;25.146;2023-10-31T09:46:11;95332.88;;;29.41;29.56
61408;BME280;47274;43.054;25.146;2023-10-31T09:48:41;95354.63;;;29.92;27.37
61408;BME280;47274;43.054;25.146;2023-10-31T09:51:07;95293.84;;;28.97;28.93
61408;BME280;47274;43.054;25.146;2023-10-31T09:53:37;95274.09;;;28.79;29.37
61408;BME280;47274;43.054;25.146;2023-10-31T09:56:06;95311.53;;;29.87;28.52
61408;BME280;47274;43.054;25.146;2023-10-31T09:58:32;95300.31;;;30.44;27.45
61408;BME280;47274;43.054;25.146;2023-10-31T10:01:00;95332.69;;;30.71;26.50
61408;BME280;47274;43.054;25.146;2023-10-31T10:03:28;95276.56;;;29.95;27.79
61408;BME280;47274;43.054;25.146;2023-10-31T10:05:55;95289.56;;;30.60;26.92
61408;BME280;47274;43.054;25.146;2023-10-31T10:08:23;95268.41;;;30.89;26.27
61408;BME280;47274;43.054;25.146;2023-10-31T10:10:50;95282.34;;;31.24;26.56
61408;BME280;47274;43.054;25.146;2023-10-31T10:13:21;95298.09;;;31.63;26.42
61408;BME280;47274;43.054;25.146;2023-10-31T10:15:50;95287.03;;;31.56;24.90
61408;BME280;47274;43.054;25.146;2023-10-31T10:18:34;95297.91;;;29.64;24.90
61408;BME280;47274;43.054;25.146;2023-10-31T10:21:06;95278.00;;;30.16;26.58
61408;BME280;47274;43.054;25.146;2023-10-31T10:23:33;95242.16;;;30.63;23.93
61408;BME280;47274;43.054;25.146;2023-10-31T10:26:00;95215.06;;;30.42;25.94
61408;BME280;47274;43.054;25.146;2023-10-31T10:28:31;95226.06;;;30.26;25.34
61408;BME280;47274;43.054;25.146;2023-10-31T10:30:59;95235.28;;;30.91;25.17
61408;BME280;47274;43.054;25.146;2023-10-31T10:33:34;95241.06;;;30.93;24.67
61408;BME280;47274;43.054;25.146;2023-10-31T10:35:59;95246.09;;;30.03;24.03
61408;BME280;47274;43.054;25.146;2023-10-31T10:38:33;95202.56;;;29.85;23.67
61408;BME280;47274;43.054;25.146;2023-10-31T10:41:06;95222.47;;;29.12;23.76
61408;BME280;47274;43.054;25.146;2023-10-31T10:43:37;95266.53;;;29.37;24.08
61408;BME280;47274;43.054;25.146;2023-10-31T10:46:05;95229.22;;;28.33;25.86
61408;BME280;47274;43.054;25.146;2023-10-31T10:48:37;95204.75;;;30.07;23.27
61408;BME280;47274;43.054;25.146;2023-10-31T10:51:25;95213.06;;;30.87;20.02
61408;BME280;47274;43.054;25.146;2023-10-31T10:54:05;95253.06;;;32.15;19.17
61408;BME280;47274;43.054;25.146;2023-10-31T10:56:39;95190.50;;;32.41;20.40
61408;BME280;47274;43.054;25.146;2023-10-31T10:59:14;95205.28;;;32.61;20.29
61408;BME280;47274;43.054;25.146;2023-10-31T11:01:41;95183.25;;;32.88;20.40
61408;BME280;47274;43.054;25.146;2023-10-31T11:04:08;95229.25;;;33.80;19.96
61408;BME280;47274;43.054;25.146;2023-10-31T11:06:37;95235.91;;;33.91;20.27
61408;BME280;47274;43.054;25.146;2023-10-31T11:09:04;95248.59;;;34.31;20.21
61408;BME280;47274;43.054;25.146;2023-10-31T11:11:37;95240.84;;;34.43;21.10
61408;BME280;47274;43.054;25.146;2023-10-31T11:14:03;95226.66;;;34.56;20.81
61408;BME280;47274;43.054;25.146;2023-10-31T11:16:44;95239.28;;;34.19;20.23
61408;BME280;47274;43.054;25.146;2023-10-31T11:19:11;95239.41;;;34.99;20.05
61408;BME280;47274;43.054;25.146;2023-10-31T11:21:56;95166.69;;;35.25;19.49
61408;BME280;47274;43.054;25.146;2023-10-31T11:24:33;95184.41;;;36.42;19.00
61408;BME280;47274;43.054;25.146;2023-10-31T11:27:05;95168.22;;;37.15;18.77
61408;BME280;47274;43.054;25.146;2023-10-31T11:29:32;95223.28;;;38.30;17.51
61408;BME280;47274;43.054;25.146;2023-10-31T11:32:04;95175.75;;;38.39;16.75
61408;BME280;47274;43.054;25.146;2023-10-31T11:34:37;95153.00;;;38.57;16.30
61408;BME280;47274;43.054;25.146;2023-10-31T11:37:37;95205.31;;;39.00;15.99
61408;BME280;47274;43.054;25.146;2023-10-31T11:40:20;95161.13;;;38.49;16.49
61408;BME280;47274;43.054;25.146;2023-10-31T11:42:50;95163.03;;;38.03;16.50
61408;BME280;47274;43.054;25.146;2023-10-31T11:45:31;95187.88;;;38.94;15.88
61408;BME280;47274;43.054;25.146;2023-10-31T11:47:57;95207.19;;;38.63;15.67
61408;BME280;47274;43.054;25.146;2023-10-31T11:50:24;95193.41;;;38.07;16.97
61408;BME280;47274;43.054;25.146;2023-10-31T11:52:59;95191.91;;;37.76;16.10
61408;BME280;47274;43.054;25.146;2023-10-31T11:55:26;95191.63;;;36.97;17.57
61408;BME280;47274;43.054;25.146;2023-10-31T11:57:52;95188.72;;;36.17;18.66
61408;BME280;47274;43.054;25.146;2023-10-31T12:00:23;95155.84;;;35.12;18.42
61408;BME280;47274;43.054;25.146;2023-10-31T12:03:00;95192.03;;;34.96;18.10
61408;BME280;47274;43.054;25.146;2023-10-31T12:05:29;95184.19;;;34.60;20.42
61408;BME280;47274;43.054;25.146;2023-10-31T12:07:55;95175.75;;;34.35;17.68
61408;BME280;47274;43.054;25.146;2023-10-31T12:10:29;95116.19;;;33.55;17.30
61408;BME280;47274;43.054;25.146;2023-10-31T12:12:59;95121.03;;;33.17;16.29
61408;BME280;47274;43.054;25.146;2023-10-31T12:15:28;95090.97;;;31.59;18.01
61408;BME280;47274;43.054;25.146;2023-10-31T12:17:58;95110.44;;;30.93;17.16
61408;BME280;47274;43.054;25.146;2023-10-31T12:20:27;95134.06;;;30.89;16.81
61408;BME280;47274;43.054;25.146;2023-10-31T12:23:03;95159.16;;;31.40;16.61
61408;BME280;47274;43.054;25.146;2023-10-31T12:25:29;95097.19;;;30.69;16.64
61408;BME280;47274;43.054;25.146;2023-10-31T12:27:58;95074.22;;;29.19;18.10
61408;BME280;47274;43.054;25.146;2023-10-31T12:30:24;95084.25;;;29.90;17.44
61408;BME280;47274;43.054;25.146;2023-10-31T12:32:56;95154.13;;;30.48;18.13
61408;BME280;47274;43.054;25.146;2023-10-31T12:35:28;95144.31;;;30.77;18.85
61408;BME280;47274;43.054;25.146;2023-10-31T12:37:54;95121.94;;;30.83;18.81
61408;BME280;47274;43.054;25.146;2023-10-31T12:40:28;95063.81;;;29.67;19.13
61408;BME280;47274;43.054;25.146;2023-10-31T12:42:55;95148.97;;;30.56;18.91
61408;BME280;47274;43.054;25.146;2023-10-31T12:45:25;95123.88;;;30.54;20.15
61408;BME280;47274;43.054;25.146;2023-10-31T12:48:08;95099.38;;;30.14;20.29
61408;BME280;47274;43.054;25.146;2023-10-31T12:50:36;95066.22;;;29.29;21.38
61408;BME280;47274;43.054;25.146;2023-10-31T12:53:08;95129.63;;;29.29;22.28
61408;BME280;47274;43.054;25.146;2023-10-31T12:55:40;95054.13;;;28.68;21.82
61408;BME280;47274;43.054;25.146;2023-10-31T12:58:08;95103.72;;;28.81;22.59
61408;BME280;47274;43.054;25.146;2023-10-31T13:00:36;95103.81;;;28.56;23.07
61408;BME280;47274;43.054;25.146;2023-10-31T13:03:08;95064.03;;;28.27;23.50